logo
Search for airport 
image banner adimage banner adimage banner ad
image banner ad

FEGL - Melle/Gordil

Located in , Central African Republic

ICAO - FEGL, IATA - GDI

Data provided by Airmate  

General information

Coordinates: N9°35'0" E21°44'0"
Elevation is 1427 feet MSL.
 
View others Airports in Bamingui-Bangoran

Operational data

Special qualification required
Current time UTC:
Current local time:
Weather at : - ( 0 km )
METAR: YPXM 132022Z AUTO 14006KT 9999 // SCT014 BKN020 BKN026 26/23 Q1012
View NOTAMs / SUP AIP / TFR affecting this airport [VIEW]
Communications frequencies: [VIEW]

Runways:

Airport contact information

Address: Central African Republic

Satellite view of FEGL